Aérodrome :
LOGIN :

S'inscrire | Disclaimer

   EN    FR    IT 

 










Légende :    VFR   VFR Marginal   IFR   IFR Intensif   IFR Très Intensif
Visi : 
Plafond : 
>= 8 km
>= 3000ft
5 à 8 km
1000 à 3000 ft
1500m à 5 km
500 à 1000 ft
800 à 1500m
200 à 500 ft
< 800m
< 200 ft
Symboles :   Orages  Brouillard  Fortes neiges  Fortes précipitations  Vent > 20 kt
SIGMETs :   Divers  Orages  Givrage  Turbulence  Onde Orograph.  Cendres Volcan.






- Altitude de l'aérodrome : 7 ft
- Code IATA : XHE


LFTH - Hyeres

DERNIER METAR :
  • 061730Z AUTO 01002KT CAVOK 10/08 Q1021 NOSIG

METARs EXPIRÉS :
  • 061700Z AUTO 00000KT CAVOK 12/10 Q1021 NOSIG
  • 061630Z AUTO VRB02KT CAVOK 13/10 Q1020 NOSIG
  • 061600Z AUTO 24002KT CAVOK 14/10 Q1020 NOSIG
  • 061530Z AUTO 16003KT CAVOK 15/10 Q1020 NOSIG
  • 061500Z AUTO VRB02KT CAVOK 15/10 Q1020 NOSIG

TAF TAF LFTH
Valide du 06 à 15h jusqu'au 07 à 15h UTC


061400Z 0615/0715 VRB03KT CAVOK
BECMG 0708/0709 27010G20KT



MET'MAP, la Météo Aéronautique d'un coup d'oeil ! - Copyright ORBIFLY Décembre 2007 - Disclaimer

ORBIFLY MET'MAP TEAM :

Programmation & Développement : Alexandra Zaïnal
Sur une idée originale de : Baudouin d'Aumeries
Assistance à la programmation : Marc-Olivier Méhu
Soutien technique & logistique : Manuel Goepfert

Contact : metmap@orbifly.com




SOURCES & CREDITS :

   NOAA